createdAt,value
2023-04-07T00:02:04.460Z,5.80
2023-04-07T00:06:07.316Z,5.80
2023-04-07T00:10:10.322Z,5.70
2023-04-07T00:14:13.109Z,5.60
2023-04-07T00:18:15.827Z,5.60
2023-04-07T00:22:18.367Z,5.50
2023-04-07T00:26:21.268Z,5.50
2023-04-07T00:30:23.882Z,5.40
2023-04-07T00:34:26.485Z,5.40
2023-04-07T00:38:29.171Z,5.40
2023-04-07T00:42:33.642Z,5.30
2023-04-07T00:46:36.345Z,5.30
2023-04-07T00:50:39.018Z,5.20
2023-04-07T00:54:42.425Z,5.10
2023-04-07T00:58:45.015Z,5.00
2023-04-07T01:02:57.965Z,5.00
2023-04-07T01:07:07.427Z,5.00
2023-04-07T01:11:25.237Z,5.00
2023-04-07T01:15:31.352Z,5.00
2023-04-07T01:20:08.018Z,5.00
2023-04-07T01:24:30.871Z,4.90
2023-04-07T01:28:44.956Z,4.80
2023-04-07T01:32:51.470Z,4.60
2023-04-07T01:36:55.914Z,4.60
2023-04-07T01:40:59.288Z,4.60
2023-04-07T01:45:02.389Z,4.50
2023-04-07T01:49:06.028Z,4.40
2023-04-07T01:53:08.896Z,4.30
2023-04-07T01:57:11.456Z,4.20
2023-04-07T02:01:14.577Z,4.20
2023-04-07T02:05:19.490Z,4.00
2023-04-07T02:09:23.016Z,3.90
2023-04-07T02:13:26.430Z,3.90
2023-04-07T02:17:29.621Z,3.90
2023-04-07T02:21:33.476Z,3.90
2023-04-07T02:25:38.500Z,4.00
2023-04-07T02:29:41.336Z,4.10
2023-04-07T02:33:43.869Z,4.10
2023-04-07T02:37:48.188Z,4.10
2023-04-07T02:41:50.782Z,4.10
2023-04-07T02:45:53.427Z,4.10
2023-04-07T02:49:56.067Z,4.10
2023-04-07T02:53:58.624Z,4.20
2023-04-07T02:58:01.542Z,4.20
2023-04-07T03:02:22.040Z,4.20
2023-04-07T03:06:24.994Z,4.10
2023-04-07T03:10:44.066Z,3.90
2023-04-07T03:14:49.754Z,3.80
2023-04-07T03:18:52.686Z,3.80
2023-04-07T03:22:56.653Z,3.70
2023-04-07T03:27:03.625Z,3.50
2023-04-07T03:31:15.131Z,3.50
2023-04-07T03:35:18.057Z,3.40
2023-04-07T03:39:21.262Z,3.30
2023-04-07T03:43:26.661Z,3.30
2023-04-07T03:47:29.319Z,3.20
2023-04-07T03:51:36.179Z,3.10
2023-04-07T03:55:43.436Z,3.10
2023-04-07T03:59:56.318Z,3.10
2023-04-07T04:03:59.638Z,3.10
2023-04-07T04:08:05.422Z,3.20
2023-04-07T04:12:10.385Z,3.10
2023-04-07T04:16:19.314Z,3.10
2023-04-07T04:20:23.472Z,3.10
2023-04-07T04:24:27.634Z,3.10
2023-04-07T04:28:34.978Z,3.10
2023-04-07T04:32:39.788Z,3.10
2023-04-07T04:36:43.998Z,3.00
2023-04-07T04:40:47.692Z,3.00
2023-04-07T04:44:53.321Z,2.90
2023-04-07T04:48:58.031Z,2.80
2023-04-07T04:53:02.784Z,2.80
2023-04-07T04:57:06.720Z,2.70
2023-04-07T05:01:10.636Z,2.60
2023-04-07T05:05:18.085Z,2.60
2023-04-07T05:09:20.986Z,2.60
2023-04-07T05:13:25.895Z,2.60
2023-04-07T05:17:29.462Z,2.70
2023-04-07T05:21:35.176Z,2.80
2023-04-07T05:25:40.016Z,2.90
2023-04-07T05:29:44.200Z,3.00
2023-04-07T05:33:56.610Z,3.10
2023-04-07T05:38:03.192Z,3.20
2023-04-07T05:42:07.870Z,3.30
2023-04-07T05:46:13.095Z,3.30
2023-04-07T05:50:24.186Z,3.40
2023-04-07T05:54:27.794Z,3.50
2023-04-07T05:58:30.903Z,3.50
2023-04-07T06:02:34.569Z,3.60
2023-04-07T06:06:38.363Z,3.50
2023-04-07T06:10:41.816Z,3.30
2023-04-07T06:14:51.799Z,3.30
2023-04-07T06:18:54.541Z,3.50
2023-04-07T06:22:57.276Z,3.90
2023-04-07T06:27:01.474Z,4.20
2023-04-07T06:31:04.358Z,4.60
2023-04-07T06:35:07.450Z,4.80
2023-04-07T06:39:10.223Z,5.10
2023-04-07T06:43:12.985Z,5.50
2023-04-07T06:47:28.820Z,5.90
2023-04-07T06:51:32.490Z,6.30
2023-04-07T06:55:35.604Z,6.60
2023-04-07T06:59:39.085Z,6.80
2023-04-07T07:03:41.820Z,6.90
2023-04-07T07:07:44.575Z,7.00
2023-04-07T07:11:47.762Z,7.20
2023-04-07T07:15:52.166Z,7.50
2023-04-07T07:19:54.829Z,7.90
2023-04-07T07:23:57.596Z,8.40
2023-04-07T07:28:00.154Z,8.80
2023-04-07T07:32:03.057Z,9.00
2023-04-07T07:36:06.335Z,9.00
2023-04-07T07:40:09.179Z,9.30
2023-04-07T07:44:11.775Z,9.60
2023-04-07T07:48:14.469Z,10.00
2023-04-07T07:52:17.119Z,10.30
2023-04-07T07:56:19.730Z,10.50
2023-04-07T08:00:24.232Z,10.50
2023-04-07T08:04:26.886Z,10.70
2023-04-07T08:08:29.413Z,11.10
2023-04-07T08:12:31.970Z,11.40
2023-04-07T08:16:34.660Z,11.70
2023-04-07T08:20:37.370Z,11.90
2023-04-07T08:24:40.119Z,12.00
2023-04-07T08:28:42.762Z,12.20
2023-04-07T08:32:45.528Z,12.40
2023-04-07T08:36:48.342Z,12.70
2023-04-07T08:40:54.848Z,12.90
2023-04-07T08:45:00.199Z,12.90
2023-04-07T08:49:04.094Z,13.10
2023-04-07T08:53:08.243Z,13.30
2023-04-07T08:57:11.581Z,13.40
2023-04-07T09:01:14.608Z,13.50
2023-04-07T09:05:17.533Z,13.70
2023-04-07T09:09:20.029Z,13.80
2023-04-07T09:13:22.751Z,14.00
2023-04-07T09:17:26.378Z,14.20
2023-04-07T09:21:47.380Z,14.20
2023-04-07T09:25:50.087Z,14.40
2023-04-07T09:30:10.484Z,14.50
2023-04-07T09:34:37.014Z,14.60
2023-04-07T09:38:41.509Z,14.70
2023-04-07T09:42:48.310Z,14.80
2023-04-07T09:46:50.920Z,14.90
2023-04-07T09:51:05.093Z,15.10
2023-04-07T09:55:07.723Z,15.20
2023-04-07T09:59:11.125Z,15.30
2023-04-07T10:03:14.053Z,15.40
2023-04-07T10:07:17.058Z,15.60
2023-04-07T10:11:19.898Z,15.80
2023-04-07T10:15:23.165Z,15.90
2023-04-07T10:19:27.116Z,16.00
2023-04-07T10:23:29.754Z,16.00
2023-04-07T10:27:33.922Z,16.10
2023-04-07T10:31:38.143Z,16.20
2023-04-07T10:35:59.828Z,16.50
2023-04-07T10:40:21.780Z,16.50
2023-04-07T10:44:41.137Z,16.50
2023-04-07T10:49:03.676Z,16.60
2023-04-07T10:53:08.538Z,16.70
2023-04-07T10:57:15.917Z,16.70
2023-04-07T11:01:19.748Z,16.80
2023-04-07T11:05:23.148Z,17.00
2023-04-07T11:09:25.880Z,17.00
2023-04-07T11:13:28.554Z,17.10
2023-04-07T11:17:31.198Z,17.40
2023-04-07T11:21:33.982Z,17.30
2023-04-07T11:25:37.052Z,17.20
2023-04-07T11:29:39.827Z,17.20
2023-04-07T11:33:43.618Z,17.50
2023-04-07T11:37:46.254Z,17.70
2023-04-07T11:41:49.700Z,17.50
2023-04-07T11:46:09.065Z,17.80
2023-04-07T11:50:13.781Z,18.00
2023-04-07T11:54:17.223Z,18.00
2023-04-07T11:58:19.764Z,18.00
2023-04-07T12:02:32.761Z,18.20
2023-04-07T12:06:38.621Z,18.30
2023-04-07T12:10:41.772Z,18.40
2023-04-07T12:14:44.458Z,18.50
2023-04-07T12:18:47.122Z,18.60
2023-04-07T12:22:49.660Z,18.90
2023-04-07T12:26:52.407Z,19.00
2023-04-07T12:30:55.635Z,19.00
2023-04-07T12:34:59.374Z,18.90
2023-04-07T12:39:02.233Z,18.70
2023-04-07T12:43:05.938Z,18.80
2023-04-07T12:47:08.629Z,18.80
2023-04-07T12:51:11.201Z,18.80
2023-04-07T12:55:14.439Z,18.80
2023-04-07T12:59:17.061Z,18.70
2023-04-07T13:03:20.086Z,18.60
2023-04-07T13:07:22.962Z,18.60
2023-04-07T13:11:25.756Z,18.80
2023-04-07T13:15:29.117Z,19.00
2023-04-07T13:19:31.799Z,19.00
2023-04-07T13:23:42.759Z,19.10
2023-04-07T13:27:46.801Z,19.40
2023-04-07T13:31:49.629Z,19.40
2023-04-07T13:35:52.223Z,19.10
2023-04-07T13:39:54.830Z,18.90
2023-04-07T13:43:58.516Z,19.00
2023-04-07T13:48:01.097Z,19.00
2023-04-07T13:52:03.706Z,19.00
2023-04-07T13:56:08.536Z,18.80
2023-04-07T14:00:11.659Z,18.80
2023-04-07T14:04:14.491Z,19.00
2023-04-07T14:08:19.013Z,19.00
2023-04-07T14:12:22.469Z,18.70
2023-04-07T14:16:25.594Z,18.70
2023-04-07T14:20:28.273Z,18.80
2023-04-07T14:24:31.298Z,18.90
2023-04-07T14:28:33.963Z,18.70
2023-04-07T14:32:36.639Z,18.60
2023-04-07T14:36:39.150Z,18.70
2023-04-07T14:40:42.045Z,18.60
2023-04-07T14:44:44.725Z,18.50
2023-04-07T14:48:47.258Z,18.60
2023-04-07T14:52:50.345Z,18.70
2023-04-07T14:56:52.910Z,18.80
2023-04-07T15:00:55.507Z,18.80
2023-04-07T15:04:58.464Z,18.90
2023-04-07T15:09:01.164Z,18.70
2023-04-07T15:13:04.186Z,18.50
2023-04-07T15:17:06.701Z,18.50
2023-04-07T15:21:09.609Z,18.50
2023-04-07T15:25:12.307Z,18.60
2023-04-07T15:29:15.117Z,18.40
2023-04-07T15:33:18.065Z,18.20
2023-04-07T15:37:20.872Z,18.00
2023-04-07T15:41:23.585Z,17.90
2023-04-07T15:45:26.209Z,17.80
2023-04-07T15:49:28.803Z,17.60
2023-04-07T15:53:31.405Z,17.50
2023-04-07T15:57:34.046Z,17.50
2023-04-07T16:01:38.254Z,17.50
2023-04-07T16:05:40.998Z,17.30
2023-04-07T16:09:43.721Z,17.10
2023-04-07T16:13:46.987Z,17.00
2023-04-07T16:17:49.719Z,17.00
2023-04-07T16:21:52.627Z,16.80
2023-04-07T16:25:55.630Z,16.80
2023-04-07T16:29:58.235Z,16.60
2023-04-07T16:34:01.865Z,16.50
2023-04-07T16:38:06.329Z,16.30
2023-04-07T16:42:08.979Z,16.10
2023-04-07T16:46:11.839Z,15.90
2023-04-07T16:50:14.847Z,15.70
2023-04-07T16:54:17.608Z,15.60
2023-04-07T16:58:23.644Z,15.50
2023-04-07T17:02:27.782Z,15.40
2023-04-07T17:06:30.561Z,15.30
2023-04-07T17:10:33.088Z,15.20
2023-04-07T17:14:35.880Z,15.20
2023-04-07T17:18:38.673Z,15.10
2023-04-07T17:22:41.352Z,15.00
2023-04-07T17:26:46.529Z,15.00
2023-04-07T17:30:49.089Z,15.00
2023-04-07T17:34:52.057Z,14.90
2023-04-07T17:38:54.725Z,14.80
2023-04-07T17:42:57.536Z,14.80
2023-04-07T17:47:00.622Z,14.70
2023-04-07T17:51:07.535Z,14.70
2023-04-07T17:55:10.390Z,14.50
2023-04-07T17:59:12.954Z,14.50
2023-04-07T18:03:15.734Z,14.40
2023-04-07T18:07:18.480Z,14.30
2023-04-07T18:11:21.754Z,14.20
2023-04-07T18:15:24.273Z,14.10
2023-04-07T18:19:30.373Z,14.10
2023-04-07T18:23:33.987Z,14.10
2023-04-07T18:27:36.973Z,14.00
2023-04-07T18:31:40.410Z,14.00
2023-04-07T18:35:43.006Z,14.00
2023-04-07T18:39:45.769Z,14.00
2023-04-07T18:43:48.884Z,14.00
2023-04-07T18:47:51.716Z,13.90
2023-04-07T18:51:54.254Z,14.00
2023-04-07T18:55:57.150Z,14.00
2023-04-07T18:59:59.818Z,13.90
2023-04-07T19:04:03.070Z,13.90
2023-04-07T19:08:06.037Z,13.80
2023-04-07T19:12:09.698Z,13.70
2023-04-07T19:16:12.325Z,13.60
2023-04-07T19:20:14.936Z,13.50
2023-04-07T19:24:17.474Z,13.30
2023-04-07T19:28:20.378Z,13.20
2023-04-07T19:32:23.078Z,13.20
2023-04-07T19:36:26.509Z,13.10
2023-04-07T19:40:31.434Z,13.10
2023-04-07T19:44:35.169Z,13.00
2023-04-07T19:48:37.808Z,12.90
2023-04-07T19:52:43.214Z,12.90
2023-04-07T19:56:46.113Z,12.80
2023-04-07T20:00:50.840Z,12.70
2023-04-07T20:04:53.748Z,12.60
2023-04-07T20:08:56.278Z,12.50
2023-04-07T20:12:58.842Z,12.50
2023-04-07T20:17:01.835Z,12.50
2023-04-07T20:21:07.799Z,12.50
2023-04-07T20:25:10.744Z,12.50
2023-04-07T20:29:13.395Z,12.50
2023-04-07T20:33:16.304Z,12.50
2023-04-07T20:37:23.141Z,12.50
2023-04-07T23:23:11.005Z,11.40
